createdAt,value
2022-10-23T00:01:38.279Z,13.40
2022-10-23T00:04:09.083Z,13.40
2022-10-23T00:06:40.191Z,13.30
2022-10-23T00:09:07.919Z,13.30
2022-10-23T00:11:35.363Z,13.30
2022-10-23T00:14:03.593Z,13.30
2022-10-23T00:16:30.697Z,13.30
2022-10-23T00:18:57.492Z,13.20
2022-10-23T00:21:24.382Z,13.20
2022-10-23T00:23:51.272Z,13.20
2022-10-23T00:26:18.295Z,13.20
2022-10-23T00:28:46.374Z,13.20
2022-10-23T00:31:13.548Z,13.20
2022-10-23T00:33:40.872Z,13.20
2022-10-23T00:36:08.714Z,13.10
2022-10-23T00:38:36.060Z,13.10
2022-10-23T00:41:03.030Z,13.10
2022-10-23T00:43:30.569Z,13.10
2022-10-23T00:45:58.496Z,13.10
2022-10-23T00:48:28.889Z,13.10
2022-10-23T00:50:56.510Z,13.10
2022-10-23T00:53:24.698Z,13.10
2022-10-23T00:55:53.970Z,13.10
2022-10-23T00:58:21.213Z,13.10
2022-10-23T01:00:49.990Z,13.10
2022-10-23T01:03:20.335Z,13.10
2022-10-23T01:05:50.292Z,13.10
2022-10-23T01:08:20.901Z,13.10
2022-10-23T01:11:00.424Z,13.00
2022-10-23T01:13:37.738Z,13.00
2022-10-23T01:16:04.510Z,13.00
2022-10-23T01:18:39.822Z,13.00
2022-10-23T01:21:12.374Z,13.00
2022-10-23T01:23:58.100Z,13.00
2022-10-23T01:26:30.983Z,13.00
2022-10-23T01:29:10.201Z,13.00
2022-10-23T01:31:39.681Z,13.00
2022-10-23T01:34:10.748Z,13.00
2022-10-23T01:36:41.908Z,13.00
2022-10-23T01:39:11.128Z,12.90
2022-10-23T01:41:46.389Z,12.90
2022-10-23T01:44:27.595Z,12.90
2022-10-23T01:46:55.865Z,12.90
2022-10-23T01:49:23.843Z,12.90
2022-10-23T01:51:56.355Z,12.90
2022-10-23T01:54:25.641Z,12.90
2022-10-23T01:56:53.054Z,12.90
2022-10-23T01:59:35.201Z,12.90
2022-10-23T02:02:03.124Z,12.90
2022-10-23T02:04:34.015Z,12.90
2022-10-23T02:07:00.792Z,12.90
2022-10-23T02:09:27.831Z,12.90
2022-10-23T02:12:07.092Z,12.90
2022-10-23T02:14:38.014Z,12.90
2022-10-23T02:17:25.069Z,12.80
2022-10-23T02:19:58.181Z,12.80
2022-10-23T02:22:31.462Z,12.80
2022-10-23T02:25:01.197Z,12.80
2022-10-23T02:27:37.192Z,12.90
2022-10-23T02:30:08.680Z,12.90
2022-10-23T02:32:37.783Z,12.90
2022-10-23T02:35:06.097Z,12.90
2022-10-23T02:37:32.998Z,12.90
2022-10-23T02:40:01.884Z,12.80
2022-10-23T02:42:38.506Z,12.80
2022-10-23T02:45:09.125Z,12.80
2022-10-23T02:47:46.819Z,12.80
2022-10-23T02:50:23.381Z,12.80
2022-10-23T02:52:58.985Z,12.80
2022-10-23T02:55:31.724Z,12.80
2022-10-23T02:58:18.351Z,12.80
2022-10-23T03:00:52.209Z,12.80
2022-10-23T03:03:21.477Z,12.70
2022-10-23T03:05:48.273Z,12.70
2022-10-23T03:08:15.325Z,12.70
2022-10-23T03:10:42.278Z,12.70
2022-10-23T03:13:10.149Z,12.70
2022-10-23T03:15:43.945Z,12.60
2022-10-23T03:18:13.638Z,12.60
2022-10-23T03:20:45.318Z,12.60
2022-10-23T03:23:13.542Z,12.60
2022-10-23T03:25:40.251Z,12.60
2022-10-23T03:28:07.203Z,12.50
2022-10-23T03:30:35.482Z,12.50
2022-10-23T03:33:02.422Z,12.50
2022-10-23T03:35:29.329Z,12.50
2022-10-23T03:37:56.144Z,12.50
2022-10-23T03:40:25.479Z,12.50
2022-10-23T03:42:52.509Z,12.40
2022-10-23T03:45:20.145Z,12.40
2022-10-23T03:47:48.787Z,12.40
2022-10-23T03:50:15.689Z,12.40
2022-10-23T03:52:42.842Z,12.40
2022-10-23T03:55:12.644Z,12.40
2022-10-23T03:57:39.421Z,12.40
2022-10-23T04:00:06.709Z,12.40
2022-10-23T04:02:43.573Z,12.30
2022-10-23T04:05:13.176Z,12.30
2022-10-23T04:07:47.554Z,12.30
2022-10-23T04:10:14.855Z,12.30
2022-10-23T04:12:42.028Z,12.30
2022-10-23T04:15:09.163Z,12.20
2022-10-23T04:17:35.893Z,12.20
2022-10-23T04:20:02.751Z,12.20
2022-10-23T04:22:29.508Z,12.20
2022-10-23T04:24:56.480Z,12.20
2022-10-23T04:27:23.318Z,12.10
2022-10-23T04:29:51.048Z,12.10
2022-10-23T04:32:19.626Z,12.10
2022-10-23T04:34:46.339Z,12.10
2022-10-23T04:37:13.233Z,12.10
2022-10-23T04:39:40.165Z,12.10
2022-10-23T04:42:06.944Z,12.10
2022-10-23T04:44:35.159Z,12.10
2022-10-23T04:47:02.393Z,12.10
2022-10-23T04:49:29.377Z,12.00
2022-10-23T04:52:21.877Z,12.00
2022-10-23T04:55:11.878Z,12.00
2022-10-23T04:57:52.355Z,11.90
2022-10-23T05:00:23.378Z,11.90
2022-10-23T05:02:53.480Z,11.90
2022-10-23T05:05:21.224Z,11.90
2022-10-23T05:08:02.524Z,11.90
2022-10-23T05:10:35.143Z,11.90
2022-10-23T05:13:16.595Z,11.90
2022-10-23T05:15:44.749Z,11.80
2022-10-23T05:18:13.973Z,11.80
2022-10-23T05:20:40.859Z,11.80
2022-10-23T05:23:11.520Z,11.80
2022-10-23T05:25:38.612Z,11.80
2022-10-23T05:28:18.081Z,11.80
2022-10-23T05:30:45.023Z,11.80
2022-10-23T05:33:11.912Z,11.80
2022-10-23T05:35:42.508Z,11.80
2022-10-23T05:38:09.390Z,11.70
2022-10-23T05:43:07.531Z,11.70
2022-10-23T05:45:47.253Z,11.70
2022-10-23T05:48:35.694Z,11.70
2022-10-23T05:51:23.010Z,11.80
2022-10-23T05:54:11.136Z,11.70
2022-10-23T05:56:43.310Z,11.70
2022-10-23T05:59:22.134Z,11.70
2022-10-23T06:02:20.629Z,11.70
2022-10-23T06:05:00.261Z,11.70
2022-10-23T06:07:40.607Z,11.70
2022-10-23T06:10:08.050Z,11.70
2022-10-23T06:12:39.514Z,11.70
2022-10-23T06:15:06.681Z,11.70
2022-10-23T06:17:53.684Z,11.70
2022-10-23T06:20:23.053Z,11.60
2022-10-23T06:23:01.301Z,11.70
2022-10-23T06:26:04.042Z,11.60
2022-10-23T06:28:38.276Z,11.60
2022-10-23T06:31:09.240Z,11.70
2022-10-23T06:34:16.599Z,11.70
2022-10-23T06:36:45.146Z,11.70
2022-10-23T06:39:29.799Z,11.70
2022-10-23T06:42:24.900Z,11.70
2022-10-23T06:44:54.400Z,11.60
2022-10-23T06:47:53.885Z,11.70
2022-10-23T06:50:39.258Z,11.60
2022-10-23T06:53:12.454Z,11.60
2022-10-23T06:55:44.939Z,11.60
2022-10-23T06:58:11.785Z,11.60
2022-10-23T07:00:53.848Z,11.60
2022-10-23T07:03:21.160Z,11.50
2022-10-23T07:05:48.024Z,11.50
2022-10-23T07:08:15.623Z,11.50
2022-10-23T07:10:45.252Z,11.50
2022-10-23T07:13:12.356Z,11.50
2022-10-23T07:15:40.587Z,11.50
2022-10-23T07:18:17.080Z,11.50
2022-10-23T07:21:06.880Z,11.50
2022-10-23T07:23:34.234Z,11.40
2022-10-23T07:26:09.077Z,11.40
2022-10-23T07:28:36.784Z,11.40
2022-10-23T07:31:03.571Z,11.40
2022-10-23T07:33:53.095Z,11.40
2022-10-23T07:36:23.839Z,11.40
2022-10-23T07:38:55.209Z,11.50
2022-10-23T07:41:39.100Z,11.50
2022-10-23T07:44:06.644Z,11.50
2022-10-23T07:46:33.923Z,11.50
2022-10-23T07:49:00.971Z,11.50
2022-10-23T07:51:27.761Z,11.60
2022-10-23T07:53:59.643Z,11.60
2022-10-23T07:56:55.689Z,11.60
2022-10-23T07:59:27.694Z,11.70
2022-10-23T08:01:56.727Z,11.70
2022-10-23T08:04:31.012Z,11.70
2022-10-23T08:07:17.194Z,11.80
2022-10-23T08:09:45.854Z,11.90
2022-10-23T08:12:12.775Z,12.00
2022-10-23T08:14:40.062Z,12.00
2022-10-23T08:17:09.706Z,12.10
2022-10-23T08:19:59.570Z,12.20
2022-10-23T08:22:31.746Z,12.30
2022-10-23T08:24:58.521Z,12.50
2022-10-23T08:27:25.359Z,12.50
2022-10-23T08:29:52.673Z,12.60
2022-10-23T08:32:20.822Z,12.70
2022-10-23T08:34:53.561Z,12.80
2022-10-23T08:37:22.517Z,12.90
2022-10-23T08:39:51.404Z,12.90
2022-10-23T08:42:27.136Z,13.00
2022-10-23T08:45:05.925Z,13.10
2022-10-23T08:47:39.205Z,13.20
2022-10-23T08:50:41.138Z,13.20
2022-10-23T08:53:18.239Z,13.30
2022-10-23T08:55:56.954Z,13.40
2022-10-23T08:58:40.889Z,13.40
2022-10-23T09:01:21.325Z,13.40
2022-10-23T09:03:48.358Z,13.50
2022-10-23T09:06:33.884Z,13.50
2022-10-23T09:09:10.181Z,13.60
2022-10-23T09:11:57.668Z,13.60
2022-10-23T09:14:34.804Z,13.60
2022-10-23T09:17:12.594Z,13.70
2022-10-23T09:19:39.451Z,13.70
2022-10-23T09:22:06.453Z,13.80
2022-10-23T09:24:54.080Z,13.90
2022-10-23T09:27:24.314Z,13.90
2022-10-23T09:29:52.647Z,13.90
2022-10-23T09:32:19.792Z,14.00
2022-10-23T09:34:51.585Z,14.10
2022-10-23T09:37:33.346Z,14.10
2022-10-23T09:40:12.342Z,14.10
2022-10-23T09:42:49.954Z,14.20
2022-10-23T09:45:24.561Z,14.30
2022-10-23T09:48:03.437Z,14.30
2022-10-23T09:50:30.251Z,14.30
2022-10-23T09:52:59.952Z,14.30
2022-10-23T09:55:29.763Z,14.40
2022-10-23T09:57:56.714Z,14.50
2022-10-23T10:00:26.275Z,14.50
2022-10-23T10:03:04.182Z,14.50
2022-10-23T10:05:44.545Z,14.60
2022-10-23T10:08:30.065Z,14.60
2022-10-23T10:10:56.867Z,14.60
2022-10-23T10:13:29.642Z,14.60
2022-10-23T10:15:58.993Z,14.70
2022-10-23T10:18:31.728Z,14.70
2022-10-23T10:21:07.799Z,14.70
2022-10-23T10:23:40.926Z,14.80
2022-10-23T10:26:15.505Z,14.80
2022-10-23T10:28:42.293Z,14.80
2022-10-23T10:31:14.880Z,14.90
2022-10-23T10:34:04.975Z,14.90
2022-10-23T10:36:40.332Z,15.00
2022-10-23T10:39:24.566Z,15.00
2022-10-23T10:42:13.418Z,15.00
2022-10-23T10:44:46.354Z,15.00
2022-10-23T10:47:14.904Z,15.00
2022-10-23T10:49:50.224Z,15.00
2022-10-23T10:52:54.942Z,15.10
2022-10-23T10:55:30.920Z,15.10
2022-10-23T10:58:00.137Z,15.10
2022-10-23T11:00:28.519Z,15.20
2022-10-23T11:03:03.779Z,15.20
2022-10-23T11:05:31.082Z,15.20
2022-10-23T11:08:00.876Z,15.20
2022-10-23T11:10:28.789Z,15.30
2022-10-23T11:12:55.775Z,15.30
2022-10-23T11:15:25.904Z,15.30
2022-10-23T11:18:00.880Z,15.30
2022-10-23T11:20:33.958Z,15.30
2022-10-23T11:23:12.017Z,15.30
2022-10-23T11:25:57.287Z,15.40
2022-10-23T11:28:30.789Z,15.40
2022-10-23T11:31:11.901Z,15.40
2022-10-23T11:33:49.841Z,15.40
2022-10-23T11:36:20.784Z,15.50
2022-10-23T11:38:49.422Z,15.50
2022-10-23T11:41:21.159Z,15.50
2022-10-23T11:43:55.523Z,15.60
2022-10-23T11:46:22.218Z,15.60
2022-10-23T11:48:49.660Z,15.60
2022-10-23T11:51:28.625Z,15.60
2022-10-23T11:54:22.317Z,15.60
2022-10-23T11:57:08.085Z,15.70
2022-10-23T11:59:49.998Z,15.70
2022-10-23T12:02:22.781Z,15.70
2022-10-23T12:04:51.376Z,15.70
2022-10-23T12:07:23.294Z,15.80
2022-10-23T12:09:55.501Z,15.80
2022-10-23T12:12:28.494Z,15.80
2022-10-23T12:15:06.665Z,15.90
2022-10-23T12:17:35.899Z,15.90
2022-10-23T12:20:08.867Z,16.00
2022-10-23T12:22:47.968Z,16.00
2022-10-23T12:25:16.442Z,16.00
2022-10-23T12:27:51.672Z,16.00
2022-10-23T12:30:22.840Z,16.00
2022-10-23T12:32:52.370Z,16.00
2022-10-23T12:35:19.489Z,16.00
2022-10-23T12:38:02.817Z,16.00
2022-10-23T12:40:32.564Z,16.00
2022-10-23T12:43:00.593Z,16.10
2022-10-23T12:45:37.509Z,16.10
2022-10-23T12:48:04.620Z,16.10
2022-10-23T12:50:32.403Z,16.10
2022-10-23T12:53:04.191Z,16.10
2022-10-23T12:55:47.657Z,16.10
2022-10-23T12:58:43.837Z,16.20
2022-10-23T13:01:22.807Z,16.20
2022-10-23T13:03:50.057Z,16.20
2022-10-23T13:06:16.935Z,16.20
2022-10-23T13:08:45.822Z,16.20
2022-10-23T13:11:33.114Z,16.20
2022-10-23T13:14:10.647Z,16.30
2022-10-23T13:16:37.486Z,16.20
2022-10-23T13:19:05.974Z,16.20
2022-10-23T13:21:32.994Z,16.30
2022-10-23T13:23:59.705Z,16.30
2022-10-23T13:26:33.143Z,16.30
2022-10-23T13:29:06.175Z,16.30
2022-10-23T13:31:34.298Z,16.30
2022-10-23T13:34:01.065Z,16.30
2022-10-23T13:36:29.184Z,16.20
2022-10-23T13:38:58.732Z,16.20
2022-10-23T13:41:26.447Z,16.20
2022-10-23T13:43:53.573Z,16.20
2022-10-23T13:46:25.592Z,16.20
2022-10-23T13:48:52.544Z,16.20
2022-10-23T13:51:19.357Z,16.30
2022-10-23T13:53:46.086Z,16.30
2022-10-23T13:56:13.754Z,16.30
2022-10-23T13:58:40.582Z,16.30
2022-10-23T14:01:12.484Z,16.30
2022-10-23T14:03:39.366Z,16.30
2022-10-23T14:06:06.243Z,16.30
2022-10-23T14:08:32.968Z,16.30
2022-10-23T14:10:59.697Z,16.30
2022-10-23T14:13:26.547Z,16.30
2022-10-23T14:15:56.332Z,16.30
2022-10-23T14:18:23.238Z,16.30
2022-10-23T14:20:50.397Z,16.30
2022-10-23T14:23:17.208Z,16.30
2022-10-23T14:25:43.891Z,16.30
2022-10-23T14:28:10.609Z,16.30
2022-10-23T14:30:37.692Z,16.30
2022-10-23T14:33:04.641Z,16.30
2022-10-23T14:35:31.583Z,16.30
2022-10-23T14:37:58.623Z,16.30
2022-10-23T14:40:25.462Z,16.30
2022-10-23T14:42:52.193Z,16.30
2022-10-23T14:45:18.901Z,16.30
2022-10-23T14:47:46.561Z,16.30
2022-10-23T14:50:14.211Z,16.30
2022-10-23T14:52:43.584Z,16.30
2022-10-23T14:55:10.287Z,16.20
2022-10-23T14:57:37.588Z,16.20
2022-10-23T15:00:05.216Z,16.20
2022-10-23T15:02:32.034Z,16.20
2022-10-23T15:04:58.881Z,16.20
2022-10-23T15:07:25.577Z,16.20
2022-10-23T15:09:52.250Z,16.20
2022-10-23T15:12:19.137Z,16.10
2022-10-23T15:14:45.849Z,16.10
2022-10-23T15:17:15.635Z,16.10
2022-10-23T15:19:42.672Z,16.10
2022-10-23T15:22:09.515Z,16.10
2022-10-23T15:24:36.213Z,16.10
2022-10-23T15:27:03.070Z,16.10
2022-10-23T15:29:29.902Z,16.00
2022-10-23T15:32:01.380Z,16.00
2022-10-23T15:34:29.007Z,16.00
2022-10-23T15:36:56.711Z,16.00
2022-10-23T15:39:24.771Z,16.00
2022-10-23T15:41:53.044Z,16.00
2022-10-23T15:44:21.346Z,15.90
2022-10-23T15:46:48.573Z,15.90
2022-10-23T15:49:15.633Z,15.90
2022-10-23T15:51:42.771Z,15.90
2022-10-23T15:54:11.086Z,15.90
2022-10-23T15:56:38.135Z,15.90
2022-10-23T15:59:04.848Z,15.90
2022-10-23T16:01:31.681Z,15.90
2022-10-23T16:03:58.593Z,15.90
2022-10-23T16:06:25.404Z,15.80
2022-10-23T16:11:21.524Z,15.70
2022-10-23T16:13:48.204Z,15.80
2022-10-23T16:16:15.196Z,15.70
2022-10-23T16:18:43.661Z,15.70
2022-10-23T16:21:21.817Z,15.70
2022-10-23T16:23:48.988Z,15.70
2022-10-23T16:26:15.962Z,15.70
2022-10-23T16:28:46.302Z,15.60
2022-10-23T16:31:19.307Z,15.60
2022-10-23T16:33:47.853Z,15.70
2022-10-23T16:36:14.919Z,15.70
2022-10-23T16:39:01.949Z,15.70
2022-10-23T16:42:04.469Z,15.70
2022-10-23T16:44:49.877Z,15.70
2022-10-23T16:47:16.665Z,15.70
2022-10-23T16:49:43.484Z,15.70
2022-10-23T16:52:10.240Z,15.60
2022-10-23T16:54:37.012Z,15.70
2022-10-23T16:57:03.937Z,15.60
2022-10-23T16:59:30.662Z,15.60
2022-10-23T17:01:57.589Z,15.60
2022-10-23T17:04:24.489Z,15.60
2022-10-23T17:06:51.357Z,15.60
2022-10-23T17:09:19.359Z,15.60
2022-10-23T17:11:46.442Z,15.60
2022-10-23T17:14:17.869Z,15.60
2022-10-23T17:16:49.092Z,15.60
2022-10-23T17:19:33.069Z,15.50
2022-10-23T17:22:10.339Z,15.50
2022-10-23T17:24:37.956Z,15.50
2022-10-23T17:27:05.554Z,15.50
2022-10-23T17:29:32.541Z,15.50
2022-10-23T17:31:59.407Z,15.50
2022-10-23T17:34:26.343Z,15.50
2022-10-23T17:36:53.830Z,15.50
2022-10-23T17:39:22.138Z,15.50
2022-10-23T17:41:48.950Z,15.50
2022-10-23T17:44:15.861Z,15.40
2022-10-23T17:46:42.553Z,15.40
2022-10-23T17:49:10.059Z,15.40
2022-10-23T17:54:17.676Z,15.40
2022-10-23T17:56:44.447Z,15.40
2022-10-23T17:59:16.450Z,15.40
2022-10-23T18:01:48.826Z,15.40
2022-10-23T18:04:18.206Z,15.30
2022-10-23T18:06:49.806Z,15.30
2022-10-23T18:09:18.880Z,15.30
2022-10-23T18:11:50.570Z,15.30
2022-10-23T18:14:18.916Z,15.30
2022-10-23T18:16:46.979Z,15.30
2022-10-23T18:19:14.557Z,15.30
2022-10-23T18:21:41.494Z,15.30
2022-10-23T18:24:08.357Z,15.30
2022-10-23T18:26:35.375Z,15.30
2022-10-23T18:29:04.818Z,15.30
2022-10-23T18:31:31.836Z,15.30
2022-10-23T18:34:01.483Z,15.30
2022-10-23T18:36:30.172Z,15.30
2022-10-23T18:38:57.010Z,15.30
2022-10-23T18:41:24.396Z,15.30
2022-10-23T18:43:52.125Z,15.30
2022-10-23T18:46:21.847Z,15.20
2022-10-23T18:48:50.836Z,15.30
2022-10-23T18:51:21.870Z,15.30
2022-10-23T18:53:49.912Z,15.30
2022-10-23T18:56:22.328Z,15.30
2022-10-23T18:58:53.916Z,15.30
2022-10-23T19:01:22.604Z,15.30
2022-10-23T19:03:49.903Z,15.30
2022-10-23T19:06:37.409Z,15.30
2022-10-23T19:09:08.458Z,15.30
2022-10-23T19:11:35.281Z,15.30
2022-10-23T19:17:39.396Z,15.40
2022-10-23T19:20:08.822Z,15.40
2022-10-23T19:22:37.336Z,15.40
2022-10-23T19:25:12.779Z,15.40
2022-10-23T19:27:41.863Z,15.40
2022-10-23T19:30:16.233Z,15.40
2022-10-23T19:32:45.700Z,15.50
2022-10-23T19:35:13.131Z,15.40
2022-10-23T19:37:41.419Z,15.40
2022-10-23T19:40:11.801Z,15.50
2022-10-23T19:42:40.602Z,15.50
2022-10-23T19:45:14.021Z,15.40
2022-10-23T19:47:41.444Z,15.40
2022-10-23T19:50:09.139Z,15.50
2022-10-23T19:52:37.277Z,15.40
2022-10-23T19:55:05.323Z,15.50
2022-10-23T19:57:37.281Z,15.40
2022-10-23T20:00:08.762Z,15.50
2022-10-23T20:02:41.893Z,15.40
2022-10-23T20:05:15.709Z,15.40
2022-10-23T20:07:42.872Z,15.40
2022-10-23T20:10:12.048Z,15.40
2022-10-23T20:12:41.801Z,15.50
2022-10-23T20:15:09.226Z,15.50
2022-10-23T20:17:39.263Z,15.50
2022-10-23T20:20:07.292Z,15.40
2022-10-23T20:22:34.897Z,15.40
2022-10-23T20:25:27.642Z,15.40
2022-10-23T20:28:05.110Z,15.40
2022-10-23T20:30:34.699Z,15.50
2022-10-23T20:33:01.795Z,15.40
2022-10-23T20:35:28.752Z,15.50
2022-10-23T20:37:55.781Z,15.40
2022-10-23T20:40:23.135Z,15.40
2022-10-23T20:42:50.745Z,15.40
2022-10-23T20:45:19.776Z,15.40
2022-10-23T20:47:48.082Z,15.30
2022-10-23T20:50:19.489Z,15.40
2022-10-23T20:52:51.512Z,15.40
2022-10-23T20:55:19.380Z,15.40
2022-10-23T20:57:50.238Z,15.40
2022-10-23T21:00:18.216Z,15.40
2022-10-23T21:02:49.901Z,15.50
2022-10-23T21:05:20.389Z,15.40
2022-10-23T21:07:47.938Z,15.40
2022-10-23T21:10:17.240Z,15.40
2022-10-23T21:12:47.857Z,15.50
2022-10-23T21:15:14.770Z,15.50
2022-10-23T21:17:44.259Z,15.40
2022-10-23T21:20:11.951Z,15.40
2022-10-23T21:22:39.633Z,15.40
2022-10-23T21:25:07.717Z,15.50
2022-10-23T21:27:35.430Z,15.50
2022-10-23T21:30:02.295Z,15.50
2022-10-23T21:32:29.728Z,15.50
2022-10-23T21:35:52.214Z,15.50
2022-10-23T21:38:27.970Z,15.40
2022-10-23T21:41:06.874Z,15.40
2022-10-23T21:43:34.189Z,15.40
2022-10-23T21:46:06.621Z,15.40
2022-10-23T21:48:37.140Z,15.50
2022-10-23T21:51:04.215Z,15.50
2022-10-23T21:53:32.564Z,15.40
2022-10-23T21:56:02.464Z,15.50
2022-10-23T21:58:29.334Z,15.50
2022-10-23T22:01:00.516Z,15.50
2022-10-23T22:03:33.119Z,15.50
2022-10-23T22:05:59.862Z,15.50
2022-10-23T22:08:26.659Z,15.50
2022-10-23T22:10:53.529Z,15.50
2022-10-23T22:13:20.525Z,15.50
2022-10-23T22:15:47.399Z,15.40
2022-10-23T22:18:14.360Z,15.50
2022-10-23T22:20:43.310Z,15.40
2022-10-23T22:23:14.237Z,15.40
2022-10-23T22:25:45.133Z,15.50
2022-10-23T22:28:14.072Z,15.40
2022-10-23T22:30:42.032Z,15.40
2022-10-23T22:33:09.068Z,15.40
2022-10-23T22:35:36.006Z,15.30
2022-10-23T22:38:27.924Z,15.30
2022-10-23T22:40:55.791Z,15.30
2022-10-23T22:43:53.286Z,15.30
2022-10-23T22:46:27.344Z,15.30
2022-10-23T22:48:56.583Z,15.20
2022-10-23T22:51:24.914Z,15.20
2022-10-23T22:53:58.284Z,15.20
2022-10-23T22:56:38.411Z,15.30
2022-10-23T22:59:05.493Z,15.20
2022-10-23T23:01:34.359Z,15.20
2022-10-23T23:04:13.791Z,15.20
2022-10-23T23:06:59.397Z,15.20
2022-10-23T23:09:30.636Z,15.20
2022-10-23T23:11:58.570Z,15.20
2022-10-23T23:14:25.436Z,15.10
2022-10-23T23:16:52.682Z,15.10
2022-10-23T23:19:22.856Z,15.10
2022-10-23T23:21:54.852Z,15.10
2022-10-23T23:24:27.137Z,15.10
2022-10-23T23:26:58.159Z,15.10
2022-10-23T23:29:25.217Z,15.10
2022-10-23T23:31:54.152Z,15.10
2022-10-23T23:34:29.234Z,15.10
2022-10-23T23:37:05.092Z,15.10
2022-10-23T23:39:32.988Z,15.10
2022-10-23T23:42:03.929Z,15.10
2022-10-23T23:44:30.670Z,15.10
2022-10-23T23:46:57.476Z,15.10
2022-10-23T23:49:24.362Z,15.10
2022-10-23T23:52:00.404Z,15.10
2022-10-23T23:55:00.154Z,15.10
2022-10-23T23:57:29.027Z,15.10
2022-10-23T23:59:55.918Z,15.10
